Silverhill, AL (36576)

9:00 PM CDT on August 31, 2016 (GMT -0500)
1st Street South | | Change Station
Active Advisory: Coastal Flood Advisory

Elev 138 ft 30.54 °N, 87.75 °W | Updated 25 seconds ago

Overcast
Overcast
80.8 °F
Feels Like 87 °F
N
0.0
Wind Variable Wind from SE
Gusts 0.0 mph

Today
High -- | Low -- °F
--% Chance of Precip.
Yesterday
High -- | Low -- °F
Precip. -- in
Pressure 29.83 in
Visibility 10.0 miles
Clouds Mostly Cloudy 5000 ft
Overcast 6500 ft
Heat Index 87 °F
Dew Point 76 °F
Humidity 85%
Rainfall 0.00 in
Snow Depth Not available.
6:27 AM 7:14 PM
Waning Crescent, 0% visible
METAR KCQF 010135Z AUTO 00000KT 10SM BKN050 OVC065 27/25 A2983 RMK AO2
Pressure 29.83 in
Visibility 10.0 miles
Clouds Mostly Cloudy 5000 ft
Overcast 6500 ft
Heat Index 87 °F
Dew Point 76 °F
Humidity 85%
Rainfall 0.00 in
Snow Depth Not available.
6:27 AM 7:14 PM
Waning Crescent, 0% visible
METAR KCQF 010135Z AUTO 00000KT 10SM BKN050 OVC065 27/25 A2983 RMK AO2
A tropical storm warning and hurricane watch is in effect for parts of the northern Florida Gulf Coast as Tropical Storm Hermine intensifies in the eastern Gulf of Mexico. A tropical storm watch is in effect for parts of the Atlantic coast of Georgia and Florida, as Hermine is expected to move near or just inland from the Southeast U.S. Coast on Friday and Friday night. Very heavy rains are possible near Hermine's path.

10-Day Weather Forecast

Almanac

Astronomy

Aug. 31, 2016 Rise Set
Actual Time
Civil Twilight
Nautical Twilight
Astronomical Twilight
Moon
Length of Visible Light
Length of Day
Tomorrow will be .
, % of the Moon is Illuminated

Today's Extremes

State Highs State Lows

Community

WunderPhotos

Upload Photos

1,936,266 photos uploaded!

WunderBlog® & News

Nearby

Air Quality

  Air Quality AQ Index Pollutant
Not available.

Snow Depth

Station Depth Elevation

Earthquake Activity

City Distance Mag. Time & Date
Minimum magnitude displayed is 2.5.

Coastal Water Temperatures

Place Temperature

Stations

Nearby Weather Stations

Station Location Temp. Windchill Dew Point Humidity Wind Precip. Elev Updated Type
                   

Watches & Warnings

Coastal Flood Advisory
Issued: 7:58 PM CDT Aug. 31, 2016 – National Weather Service

... Coastal Flood Advisory remains in effect until 7 PM CDT
Friday...

* coastal flooding... water levels 1 to 2 feet above ground level.

* Timing... minor coastal flooding most likely during the time of high
tide through Friday evening. The next high tide will be late
Thursday morning through midday.

* Impacts... minor flooding possible in typically flood prone areas
around Mobile Bay.

Precautionary/preparedness actions...

A coastal Flood Advisory indicates that strong winds and tides above
predicated levels will combine to generate flooding of low areas
along the shore.